• Join FlightAware (Why Join?)
  • Login
  • US Flag 
04:05PM EDT


 

Airport Tracker/Info


-or-


 

Live Flight TrackerFlight Track Log ✈ EJA922 ✈ 16-Aug-2013 ✈ KLIT - KAPA

Flight Track Log - Related Links

Times and Time Zones

All times are in EDT time to prevent confusion due to time zone crossing. See the EJA922 flight status page for this flight to view local times or setup timezone preferences in your user account.

Time Position Orientation Groundspeed Altitude Reporting Facility
EDT Latitude Longitude Course Direction KTS MPH feet Rate Location/Type
10:14AM 34.7511 -92.2403 359° North 179 206 1,600  Level Memphis Center
10:15AM 34.7950 -92.2411 359° North 222 255 3,900 1,320 Climbing Memphis Center
10:16AM 34.8678 -92.2556 351° North 275 316 3,900  Level Memphis Center
10:17AM 34.9128 -92.3122 314° West 270 311 3,900 9,000 Level Memphis Center
10:20AM 34.8997 -92.5953 267° West 291 335 40,000 2,580 Climbing Memphis Center
10:21AM 34.8747 -92.7136 256° West 332 382 14,400 -11,820 Descending Memphis Center
10:22AM 34.8492 -92.8419 256° West 371 427 16,400 1,920 Climbing Memphis Center
10:23AM 34.8256 -92.9756 258° West 396 456 18,300 1,920 Climbing Memphis Center
10:24AM 34.8103 -93.1064 262° West 401 461 20,300 1,980 Climbing Memphis Center
10:25AM 34.8261 -93.2411 278° West 393 452 22,300 2,040 Climbing Memphis Center
10:26AM 34.8436 -93.3733 279° West 405 466 24,400 2,040 Climbing Memphis Center
10:27AM 34.8614 -93.5056 279° West 405 466 26,400 1,980 Climbing Memphis Center
10:28AM 34.8808 -93.6378 280° West 405 466 28,400 1,980 Climbing Memphis Center
10:29AM 34.8961 -93.7700 278° West 405 466 30,400 1,800 Climbing Memphis Center
10:30AM 34.9172 -93.9053 281° West 411 473 32,100 1,560 Climbing Memphis Center
10:31AM 34.9322 -94.0400 278° West 411 473 33,600 3,900 Climbing Memphis Center
10:32AM 34.9508 -94.1803 279° West 411 473 40,000 1,500 Climbing Memphis Center
10:33AM 34.9694 -94.3178 279° West 411 473 36,700 -900 Descending Memphis Center
10:34AM 34.9858 -94.4581 278° West 411 473 38,200 1,380 Climbing Memphis Center
10:35AM 35.0006 -94.5622 280° West 426 490 39,100 1,020 Climbing Fort Worth Center
10:36AM 35.0161 -94.7036 278° West 431 496 40,000 420 Climbing Fort Worth Center
10:37AM 35.0358 -94.8450 280° West 431 496 40,000  Level Fort Worth Center
10:38AM 35.0553 -94.9786 280° West 419 482 40,000  Level Fort Worth Center
10:39AM 35.0744 -95.1153 280° West 414 476 40,000  Level Fort Worth Center
10:41AM 35.1106 -95.3908 279° West 414 476 40,000  Level Fort Worth Center
10:42AM 35.1294 -95.5325 279° West 414 476 40,000  Level Fort Worth Center
10:43AM 35.1461 -95.6769 278° West 419 482 40,000  Level Fort Worth Center
10:44AM 35.1625 -95.8214 278° West 429 494 40,000  Level Fort Worth Center
10:45AM 35.1767 -95.9581 277° West 422 486 40,000  Level Fort Worth Center
10:46AM 35.1931 -96.1028 278° West 422 486 40,000  Level Fort Worth Center
10:47AM 35.2089 -96.2472 278° West 427 491 40,000  Level Fort Worth Center
10:48AM 35.2269 -96.3894 279° West 427 491 40,000  Level Fort Worth Center
10:49AM 35.2406 -96.5317 277° West 427 491 40,000  Level Fort Worth Center
10:50AM 35.2561 -96.6736 278° West 427 491 40,000  Level Fort Worth Center
10:51AM 35.2733 -96.8158 278° West 427 491 40,000  Level Fort Worth Center
10:52AM 35.2886 -96.9583 278° West 427 491 40,000  Level Fort Worth Center
10:53AM 35.3017 -97.1008 276° West 427 491 40,000  Level Fort Worth Center
10:54AM 35.3247 -97.2481 281° West 427 491 40,000  Level Fort Worth Center
10:55AM 35.3375 -97.3958 276° West 432 497 40,000  Level Fort Worth Center
10:56AM 35.3456 -97.5358 274° West 446 513 40,000  Level Fort Worth Center
10:57AM 35.3808 -97.6708 288° West 446 513 40,000  Level Fort Worth Center
10:58AM 35.4389 -97.7931 300° West 424 488 40,000  Level Fort Worth Center
10:59AM 35.4969 -97.9208 299° West 424 488 40,000  Level Fort Worth Center
11:00AM 35.5986 -98.1478 299° West 426 490 40,000  Level Kansas City Center
11:01AM 35.6544 -98.2764 298° West 427 491 40,000  Level Kansas City Center
11:02AM 35.7158 -98.4150 299° West 427 491 40,000  Level Kansas City Center
11:03AM 35.7719 -98.5433 298° West 427 491 40,000  Level Kansas City Center
11:05AM 35.8281 -98.6728 298° West 427 491 40,000  Level Kansas City Center
11:06AM 35.8906 -98.8167 298° West 427 491 40,000  Level Kansas City Center
11:07AM 35.9464 -98.9456 298° West 427 491 40,000  Level Kansas City Center
11:08AM 36.0022 -99.0761 298° West 429 494 40,000  Level Kansas City Center
11:09AM 36.0606 -99.2064 299° West 433 498 40,000  Level Kansas City Center
11:10AM 36.1256 -99.3631 297° West 430 495 40,000  Level Kansas City Center
11:11AM 36.1817 -99.4961 298° West 431 496 40,000  Level Kansas City Center
11:12AM 36.2369 -99.6264 298° West 428 493 40,000  Level Kansas City Center
11:13AM 36.2931 -99.7586 298° West 430 495 40,000  Level Kansas City Center
11:14AM 36.3492 -99.8883 298° West 428 493 40,000  Level Kansas City Center
11:15AM 36.4239 -100.0033 309° West 426 490 40,000  Level Kansas City Center
11:16AM 36.5136 -100.1417 309° West 426 490 40,000  Level Kansas City Center
11:17AM 36.5892 -100.2556 310° West 426 490 40,000  Level Kansas City Center
11:18AM 36.6631 -100.3719 308° West 427 491 40,000  Level Kansas City Center
11:19AM 36.7422 -100.4964 308° West 427 491 40,000  Level Kansas City Center
11:20AM 36.8144 -100.6069 309° West 428 493 40,000  Level Kansas City Center
11:21AM 36.8972 -100.7392 308° West 430 495 40,000  Level Kansas City Center
11:22AM 36.9678 -100.8508 308° West 428 493 40,000  Level Kansas City Center
11:23AM 37.0514 -100.9806 309° West 427 491 40,000  Level Kansas City Center
11:24AM 37.1253 -101.0900 310° West 427 491 40,000  Level Kansas City Center
11:25AM 37.2006 -101.1992 311° West 429 494 40,000  Level Kansas City Center
11:26AM 37.2869 -101.3261 311° West 427 491 40,000  Level Kansas City Center
11:27AM 37.3642 -101.4389 311° West 435 501 40,000  Level Kansas City Center
11:28AM 37.4567 -101.5742 311° West 447 514 40,000  Level Kansas City Center
11:29AM 37.5358 -101.6914 310° West 454 522 40,000  Level Kansas City Center
11:30AM 37.6278 -101.8278 310° West 455 524 40,000  Level Kansas City Center
11:31AM 37.7069 -101.9456 310° West 458 527 40,000  Level Kansas City Center
11:32AM 37.7983 -102.0833 310° West 457 526 40,000  Level Kansas City Center
11:33AM 37.8775 -102.2006 311° West 457 526 40,000  Level Kansas City Center
11:34AM 37.9550 -102.3178 310° West 456 525 40,000  Level Kansas City Center
11:36AM 38.0444 -102.4556 310° West 453 521 40,000  Level Kansas City Center
11:37AM 38.1542 -102.6364 308° West 451 519 40,000  Level Denver Center
11:38AM 38.2258 -102.7539 308° West 440 506 40,000 -780 Level Denver Center
11:39AM 38.2983 -102.8722 308° West 442 509 38,500 -2,040 Descending Denver Center
11:40AM 38.3828 -103.0122 308° West 447 514 35,900 -2,460 Descending Denver Center
11:41AM 38.4569 -103.1369 307° West 460 529 33,500 -2,520 Descending Denver Center
11:42AM 38.5483 -103.2867 308° West 477 549 30,700 -2,580 Descending Denver Center
11:43AM 38.6253 -103.4156 307° West 485 558 28,200 -2,700 Descending Denver Center
11:44AM 38.7208 -103.5769 307° West 476 548 25,200 -2,580 Descending Denver Center
11:45AM 38.7942 -103.7006 307° West 458 527 22,900 -2,340 Descending Denver Center
11:46AM 38.8719 -103.8325 307° West 443 510 20,400 -2,340 Descending Denver Center
11:47AM 38.9361 -103.9419 307° West 387 445 18,100 -1,860 Descending Denver Center
11:48AM 38.9936 -104.0406 307° West 353 406 16,600 -1,020 Descending Denver Center
11:49AM 39.0364 -104.1508 297° West 327 376 16,000 -540 Descending Denver Center
11:50AM 39.0667 -104.2600 290° West 337 388 15,600 -1,140 Descending Denver Center
11:51AM 39.1542 -104.3608 318° Northwest 386 444 13,700 -1,740 Descending Denver Center
11:52AM 39.2372 -104.4600 317° Northwest 407 468 12,100 -1,620 Descending Denver Center
11:53AM 39.3272 -104.5628 319° Northwest 400 460 10,400 -1,020 Descending Denver Center
11:54AM 39.4033 -104.6539 317° Northwest 358 412 10,000 -720 Descending Denver Center
11:56AM 39.4653 -104.7233 319° Northwest 276 318 9,000 -540 Descending Denver Center
11:57AM 39.5342 -104.7419 348° North 260 299 9,000 -540 Level Denver Center
11:58AM 39.6050 -104.7442 359° North 256 295 8,000 -480 Descending Denver Center
11:59AM 39.6625 -104.7800 334° Northwest 215 247 8,100 -360 Climbing Denver Center
12:00PM 39.6600 -104.8381 267° West 168 193 7,300 -780 Descending Denver Center
12:01PM 39.6194 -104.8536 196° South 147 169 6,500 -720 Descending Denver Center
12:02PM 39.5808 -104.8517 178° South 143 165 5,800 -720 Descending Denver Center
12:04PM 39.5701 -104.8493 169° South  Level Estimated